createdAt,value
2022-10-26T00:00:14.264Z,13.30
2022-10-26T00:05:36.334Z,13.30
2022-10-26T00:10:58.160Z,13.23
2022-10-26T00:16:27.608Z,13.21
2022-10-26T00:21:49.326Z,13.24
2022-10-26T00:27:11.035Z,13.35
2022-10-26T00:32:33.906Z,13.43
2022-10-26T00:37:56.173Z,13.34
2022-10-26T00:43:26.871Z,13.33
2022-10-26T00:48:55.547Z,13.34
2022-10-26T00:54:19.287Z,13.34
2022-10-26T00:59:43.816Z,13.30
2022-10-26T01:05:06.747Z,13.42
2022-10-26T01:10:29.330Z,13.33
2022-10-26T01:15:56.735Z,13.41
2022-10-26T01:21:43.406Z,13.43
2022-10-26T01:27:23.803Z,13.50
2022-10-26T01:33:04.398Z,13.51
2022-10-26T01:38:41.982Z,13.50
2022-10-26T01:44:10.711Z,13.52
2022-10-26T01:49:38.096Z,13.43
2022-10-26T01:55:04.992Z,13.35
2022-10-26T02:00:26.742Z,13.13
2022-10-26T02:06:07.198Z,13.07
2022-10-26T02:11:46.613Z,13.02
2022-10-26T02:17:27.446Z,13.13
2022-10-26T02:22:51.853Z,13.11
2022-10-26T02:28:18.990Z,12.84
2022-10-26T02:33:45.589Z,12.73
2022-10-26T02:39:09.993Z,12.78
2022-10-26T02:44:38.747Z,12.89
2022-10-26T02:50:00.521Z,13.05
2022-10-26T02:55:33.787Z,13.19
2022-10-26T03:00:55.822Z,13.19
2022-10-26T03:06:24.117Z,13.13
2022-10-26T03:11:45.827Z,12.89
2022-10-26T03:17:07.840Z,12.97
2022-10-26T03:22:29.540Z,12.94
2022-10-26T03:28:02.054Z,12.89
2022-10-26T03:33:27.034Z,13.11
2022-10-26T03:38:49.522Z,13.20
2022-10-26T03:44:11.243Z,13.21
2022-10-26T03:49:32.950Z,13.28
2022-10-26T03:54:54.624Z,13.32
2022-10-26T04:00:17.890Z,13.40
2022-10-26T04:05:39.642Z,13.53
2022-10-26T04:11:03.954Z,13.59
2022-10-26T04:16:31.012Z,13.50
2022-10-26T04:21:55.069Z,13.54
2022-10-26T04:27:16.756Z,13.44
2022-10-26T04:32:38.435Z,13.47
2022-10-26T04:38:02.194Z,13.51
2022-10-26T04:43:23.903Z,13.56
2022-10-26T04:48:47.938Z,13.61
2022-10-26T04:54:09.650Z,13.61
2022-10-26T04:59:31.359Z,13.62
2022-10-26T05:04:53.123Z,13.65
2022-10-26T05:10:14.887Z,13.61
2022-10-26T05:15:36.578Z,13.65
2022-10-26T05:20:58.290Z,13.75
2022-10-26T05:26:20.138Z,13.74
2022-10-26T05:31:41.838Z,13.62
2022-10-26T05:37:03.590Z,13.65
2022-10-26T05:42:25.442Z,13.74
2022-10-26T05:47:47.366Z,13.78
2022-10-26T05:53:09.352Z,13.87
2022-10-26T05:58:31.376Z,13.95
2022-10-26T06:04:17.515Z,13.96
2022-10-26T06:09:40.759Z,13.88
2022-10-26T06:15:02.642Z,13.91
2022-10-26T06:20:30.523Z,13.87
2022-10-26T06:26:05.317Z,13.84
2022-10-26T06:31:27.146Z,13.86
2022-10-26T06:36:49.898Z,13.88
2022-10-26T06:42:12.172Z,14.01
2022-10-26T06:47:42.136Z,14.13
2022-10-26T06:53:33.406Z,14.16
2022-10-26T06:59:03.462Z,14.09
2022-10-26T07:04:27.940Z,14.06
2022-10-26T07:09:49.885Z,14.02
2022-10-26T07:15:12.049Z,13.99
2022-10-26T07:20:41.490Z,14.01
2022-10-26T07:26:03.356Z,14.02
2022-10-26T07:31:26.192Z,14.04
2022-10-26T07:36:47.894Z,13.99
2022-10-26T07:42:09.631Z,14.15
2022-10-26T07:47:31.367Z,14.32
2022-10-26T07:52:53.415Z,14.55
2022-10-26T07:58:15.336Z,14.67
2022-10-26T08:03:37.400Z,14.76
2022-10-26T08:08:59.155Z,14.83
2022-10-26T08:14:20.932Z,14.89
2022-10-26T08:19:42.608Z,14.99
2022-10-26T08:25:04.632Z,15.08
2022-10-26T08:30:26.334Z,15.16
2022-10-26T08:35:48.438Z,15.21
2022-10-26T08:41:10.562Z,15.22
2022-10-26T08:46:40.175Z,15.30
2022-10-26T08:52:02.865Z,15.23
2022-10-26T08:57:41.282Z,15.26
2022-10-26T09:03:13.033Z,15.31
2022-10-26T09:08:53.735Z,15.39
2022-10-26T09:14:29.156Z,15.49
2022-10-26T09:20:05.615Z,15.58
2022-10-26T09:25:34.782Z,15.68
2022-10-26T09:30:58.987Z,15.70
2022-10-26T09:36:22.484Z,15.73
2022-10-26T09:41:51.961Z,15.74
2022-10-26T09:47:32.783Z,15.84
2022-10-26T09:52:54.520Z,15.90
2022-10-26T09:58:21.921Z,15.95
2022-10-26T10:03:43.598Z,16.23
2022-10-26T10:09:12.665Z,16.42
2022-10-26T10:14:40.076Z,16.37
2022-10-26T10:20:12.895Z,16.42
2022-10-26T10:25:40.010Z,16.48
2022-10-26T10:31:05.790Z,16.48
2022-10-26T10:36:30.154Z,16.63
2022-10-26T10:41:52.004Z,16.73
2022-10-26T10:47:27.333Z,16.71
2022-10-26T10:52:49.546Z,16.82
2022-10-26T10:58:45.018Z,16.82
2022-10-26T11:09:41.829Z,16.93
2022-10-26T11:15:08.782Z,17.02
2022-10-26T11:20:32.946Z,17.02
2022-10-26T11:26:09.837Z,17.13
2022-10-26T11:31:42.257Z,17.17
2022-10-26T11:37:11.277Z,17.20
2022-10-26T11:42:40.899Z,17.20
2022-10-26T11:48:14.458Z,17.24
2022-10-26T11:53:41.086Z,17.27
2022-10-26T12:04:33.390Z,17.48
2022-10-26T12:09:56.095Z,17.60
2022-10-26T12:15:40.336Z,17.61
2022-10-26T12:21:14.916Z,17.67
2022-10-26T12:26:36.529Z,17.71
2022-10-26T12:31:58.845Z,17.70
2022-10-26T12:37:33.679Z,17.74
2022-10-26T12:42:58.451Z,17.85
2022-10-26T12:48:46.766Z,17.73
2022-10-26T12:54:39.984Z,17.93
2022-10-26T13:00:05.740Z,17.89
2022-10-26T13:05:44.010Z,17.87
2022-10-26T13:11:15.437Z,17.96
2022-10-26T13:16:37.258Z,17.92
2022-10-26T13:22:00.263Z,17.93
2022-10-26T13:27:24.873Z,17.98
2022-10-26T13:32:56.436Z,18.09
2022-10-26T13:38:23.084Z,18.04
2022-10-26T13:43:46.704Z,18.02
2022-10-26T13:49:22.123Z,18.05
2022-10-26T13:54:54.620Z,18.16
2022-10-26T14:00:21.861Z,18.21
2022-10-26T14:05:49.947Z,18.24
2022-10-26T14:11:15.397Z,18.25
2022-10-26T14:16:37.228Z,18.19
2022-10-26T14:21:59.489Z,18.20
2022-10-26T14:27:32.868Z,18.36
2022-10-26T14:32:55.231Z,18.41
2022-10-26T14:38:22.326Z,18.46
2022-10-26T14:43:45.786Z,18.44
2022-10-26T14:49:19.308Z,18.44
2022-10-26T14:54:41.116Z,18.45
2022-10-26T15:00:12.211Z,18.46
2022-10-26T15:05:35.933Z,18.46
2022-10-26T15:10:57.827Z,18.43
2022-10-26T15:16:22.303Z,18.45
2022-10-26T15:21:48.527Z,18.44
2022-10-26T15:27:19.654Z,18.30
2022-10-26T15:32:41.463Z,18.26
2022-10-26T15:38:03.137Z,18.15
2022-10-26T15:43:24.946Z,18.06
2022-10-26T15:48:54.677Z,17.95
2022-10-26T15:54:17.544Z,17.85
2022-10-26T15:59:39.604Z,17.77
2022-10-26T16:05:01.286Z,17.67
2022-10-26T16:10:24.994Z,17.59
2022-10-26T16:15:46.775Z,17.52
2022-10-26T16:21:13.044Z,17.44
2022-10-26T16:26:34.787Z,17.26
2022-10-26T16:31:56.586Z,17.08
2022-10-26T16:37:18.272Z,17.12
2022-10-26T16:42:44.556Z,16.99
2022-10-26T16:48:13.723Z,16.93
2022-10-26T16:53:35.715Z,16.84
2022-10-26T16:58:57.510Z,16.76
2022-10-26T17:04:19.342Z,16.63
2022-10-26T17:09:41.048Z,16.57
2022-10-26T17:15:02.854Z,16.42
2022-10-26T17:20:24.684Z,16.36
2022-10-26T17:25:46.383Z,16.32
2022-10-26T17:31:11.600Z,16.28
2022-10-26T17:36:33.360Z,16.22
2022-10-26T17:41:55.089Z,16.22
2022-10-26T17:47:16.787Z,16.20
2022-10-26T17:52:38.525Z,16.11
2022-10-26T17:58:00.327Z,16.07
2022-10-26T18:03:22.091Z,16.05
2022-10-26T18:08:44.745Z,16.07
2022-10-26T18:14:06.427Z,16.14
2022-10-26T18:19:28.127Z,16.16
2022-10-26T18:24:49.971Z,15.98
2022-10-26T18:30:12.264Z,15.93
2022-10-26T18:35:33.964Z,15.82
2022-10-26T18:40:55.766Z,15.75
2022-10-26T18:46:21.672Z,15.83
2022-10-26T18:51:43.497Z,15.60
2022-10-26T18:57:05.166Z,15.58
2022-10-26T19:02:26.876Z,15.54
2022-10-26T19:07:48.641Z,15.66
2022-10-26T19:13:10.295Z,15.66
2022-10-26T19:18:32.106Z,15.60
2022-10-26T19:23:56.355Z,15.57
2022-10-26T19:29:19.106Z,15.49
2022-10-26T19:34:40.788Z,15.34
2022-10-26T19:40:02.508Z,15.21
2022-10-26T19:45:24.235Z,15.27
2022-10-26T19:50:56.938Z,15.27
2022-10-26T19:56:20.497Z,15.18
2022-10-26T20:01:42.337Z,15.11
2022-10-26T20:07:04.110Z,15.04
2022-10-26T20:12:25.977Z,14.95
2022-10-26T20:17:47.706Z,14.83
2022-10-26T20:23:10.520Z,14.96
2022-10-26T20:28:32.364Z,14.79
2022-10-26T20:33:54.215Z,14.77
2022-10-26T20:39:16.876Z,14.67
2022-10-26T20:44:43.204Z,14.79
2022-10-26T20:50:05.507Z,14.68
2022-10-26T20:55:53.245Z,14.53
2022-10-26T21:01:38.021Z,14.61
2022-10-26T21:07:00.004Z,14.46
2022-10-26T21:12:22.468Z,14.32
2022-10-26T21:17:44.297Z,14.40
2022-10-26T21:23:05.977Z,14.27
2022-10-26T21:28:33.878Z,14.25
2022-10-26T21:33:55.636Z,14.37
2022-10-26T21:39:17.381Z,14.44
2022-10-26T21:44:41.218Z,14.40
2022-10-26T21:50:03.575Z,14.24
2022-10-26T21:55:25.362Z,14.36
2022-10-26T22:00:47.039Z,14.31
2022-10-26T22:06:10.185Z,14.06
2022-10-26T22:11:33.647Z,14.08
2022-10-26T22:16:55.419Z,14.10
2022-10-26T22:22:17.089Z,14.02
2022-10-26T22:27:38.764Z,13.79
2022-10-26T22:33:00.426Z,13.82
2022-10-26T22:38:22.139Z,14.00
2022-10-26T22:43:44.058Z,13.89
2022-10-26T22:49:05.752Z,14.01
2022-10-26T22:54:27.439Z,13.87
2022-10-26T22:59:49.111Z,13.74
2022-10-26T23:05:10.830Z,13.87
2022-10-26T23:10:32.486Z,13.73
2022-10-26T23:15:54.453Z,13.83
2022-10-26T23:21:16.945Z,13.76
2022-10-26T23:26:38.693Z,13.56
2022-10-26T23:32:00.350Z,13.53
2022-10-26T23:37:22.007Z,13.72
2022-10-26T23:42:43.675Z,13.56
2022-10-26T23:48:05.654Z,13.64
2022-10-26T23:53:27.382Z,13.59
2022-10-26T23:58:51.969Z,13.67
